sensor_id;sensor_type;location;lat;lon;timestamp;P1;durP1;ratioP1;P2;durP2;ratioP2
82783;SDS011;72520;55.762;37.780;2023-08-30T00:01:16;12.90;;;7.72;;
82783;SDS011;72520;55.762;37.780;2023-08-30T00:04:18;11.73;;;7.13;;
82783;SDS011;72520;55.762;37.780;2023-08-30T00:07:21;12.00;;;7.60;;
82783;SDS011;72520;55.762;37.780;2023-08-30T00:10:23;10.05;;;7.15;;
82783;SDS011;72520;55.762;37.780;2023-08-30T00:13:28;9.80;;;5.93;;
82783;SDS011;72520;55.762;37.780;2023-08-30T00:16:31;12.25;;;8.35;;
82783;SDS011;72520;55.762;37.780;2023-08-30T00:19:33;13.35;;;7.70;;
82783;SDS011;72520;55.762;37.780;2023-08-30T00:22:36;11.02;;;7.50;;
82783;SDS011;72520;55.762;37.780;2023-08-30T00:25:38;13.15;;;8.27;;
82783;SDS011;72520;55.762;37.780;2023-08-30T00:28:41;12.70;;;7.70;;
82783;SDS011;72520;55.762;37.780;2023-08-30T00:31:43;14.90;;;8.15;;
82783;SDS011;72520;55.762;37.780;2023-08-30T00:34:46;13.02;;;9.52;;
82783;SDS011;72520;55.762;37.780;2023-08-30T00:37:48;18.42;;;7.22;;
82783;SDS011;72520;55.762;37.780;2023-08-30T00:40:50;10.50;;;5.70;;
82783;SDS011;72520;55.762;37.780;2023-08-30T00:43:54;13.38;;;8.07;;
82783;SDS011;72520;55.762;37.780;2023-08-30T00:46:56;13.13;;;7.28;;
82783;SDS011;72520;55.762;37.780;2023-08-30T00:49:58;10.35;;;6.00;;
82783;SDS011;72520;55.762;37.780;2023-08-30T00:53:00;11.93;;;6.85;;
82783;SDS011;72520;55.762;37.780;2023-08-30T00:56:05;12.50;;;7.28;;
82783;SDS011;72520;55.762;37.780;2023-08-30T00:59:09;13.73;;;8.32;;
82783;SDS011;72520;55.762;37.780;2023-08-30T01:02:11;13.98;;;8.68;;
82783;SDS011;72520;55.762;37.780;2023-08-30T01:05:13;13.95;;;8.40;;
82783;SDS011;72520;55.762;37.780;2023-08-30T01:08:15;13.20;;;8.57;;
82783;SDS011;72520;55.762;37.780;2023-08-30T01:11:19;14.13;;;8.45;;
82783;SDS011;72520;55.762;37.780;2023-08-30T01:17:32;14.80;;;9.27;;
82783;SDS011;72520;55.762;37.780;2023-08-30T01:20:37;12.25;;;8.32;;
82783;SDS011;72520;55.762;37.780;2023-08-30T01:23:42;13.57;;;8.68;;
82783;SDS011;72520;55.762;37.780;2023-08-30T01:26:59;13.00;;;8.25;;
82783;SDS011;72520;55.762;37.780;2023-08-30T01:30:10;14.25;;;8.32;;
82783;SDS011;72520;55.762;37.780;2023-08-30T01:33:13;12.98;;;8.32;;
82783;SDS011;72520;55.762;37.780;2023-08-30T01:36:16;12.25;;;8.70;;
82783;SDS011;72520;55.762;37.780;2023-08-30T01:39:19;11.80;;;7.53;;
82783;SDS011;72520;55.762;37.780;2023-08-30T01:42:24;12.90;;;8.15;;
82783;SDS011;72520;55.762;37.780;2023-08-30T01:45:27;11.02;;;7.43;;
82783;SDS011;72520;55.762;37.780;2023-08-30T01:48:32;11.65;;;7.43;;
82783;SDS011;72520;55.762;37.780;2023-08-30T01:51:36;12.27;;;7.45;;
82783;SDS011;72520;55.762;37.780;2023-08-30T01:54:39;13.40;;;7.55;;
82783;SDS011;72520;55.762;37.780;2023-08-30T01:57:43;11.60;;;7.75;;
82783;SDS011;72520;55.762;37.780;2023-08-30T02:00:45;9.95;;;6.53;;
82783;SDS011;72520;55.762;37.780;2023-08-30T02:03:48;9.57;;;6.30;;
82783;SDS011;72520;55.762;37.780;2023-08-30T02:06:52;11.55;;;7.70;;
82783;SDS011;72520;55.762;37.780;2023-08-30T02:10:00;11.77;;;7.47;;
82783;SDS011;72520;55.762;37.780;2023-08-30T02:13:09;10.02;;;6.47;;
82783;SDS011;72520;55.762;37.780;2023-08-30T02:16:13;9.18;;;6.72;;
82783;SDS011;72520;55.762;37.780;2023-08-30T02:19:18;9.82;;;6.45;;
82783;SDS011;72520;55.762;37.780;2023-08-30T02:22:21;9.00;;;6.30;;
82783;SDS011;72520;55.762;37.780;2023-08-30T02:25:23;11.50;;;6.50;;
82783;SDS011;72520;55.762;37.780;2023-08-30T02:28:28;9.90;;;6.65;;
82783;SDS011;72520;55.762;37.780;2023-08-30T02:31:30;8.80;;;6.15;;
82783;SDS011;72520;55.762;37.780;2023-08-30T02:34:33;8.60;;;5.70;;
82783;SDS011;72520;55.762;37.780;2023-08-30T02:37:36;8.48;;;5.93;;
82783;SDS011;72520;55.762;37.780;2023-08-30T02:40:40;9.77;;;5.78;;
82783;SDS011;72520;55.762;37.780;2023-08-30T02:43:43;8.43;;;5.22;;
82783;SDS011;72520;55.762;37.780;2023-08-30T02:49:47;9.75;;;5.80;;
82783;SDS011;72520;55.762;37.780;2023-08-30T02:52:50;6.63;;;4.85;;
82783;SDS011;72520;55.762;37.780;2023-08-30T02:55:52;8.57;;;5.50;;
82783;SDS011;72520;55.762;37.780;2023-08-30T02:58:57;9.05;;;6.05;;
82783;SDS011;72520;55.762;37.780;2023-08-30T03:01:59;10.70;;;6.05;;
82783;SDS011;72520;55.762;37.780;2023-08-30T03:05:01;9.55;;;5.65;;
82783;SDS011;72520;55.762;37.780;2023-08-30T03:08:04;7.55;;;4.85;;
82783;SDS011;72520;55.762;37.780;2023-08-30T03:11:07;11.40;;;5.85;;
82783;SDS011;72520;55.762;37.780;2023-08-30T03:14:11;8.45;;;4.95;;
82783;SDS011;72520;55.762;37.780;2023-08-30T03:17:14;8.77;;;5.40;;
82783;SDS011;72520;55.762;37.780;2023-08-30T03:20:16;6.18;;;3.90;;
82783;SDS011;72520;55.762;37.780;2023-08-30T03:23:18;9.32;;;5.57;;
82783;SDS011;72520;55.762;37.780;2023-08-30T03:26:20;9.05;;;5.50;;
82783;SDS011;72520;55.762;37.780;2023-08-30T03:29:23;8.05;;;5.65;;
82783;SDS011;72520;55.762;37.780;2023-08-30T03:32:26;6.07;;;3.47;;
82783;SDS011;72520;55.762;37.780;2023-08-30T03:35:28;6.47;;;3.75;;
82783;SDS011;72520;55.762;37.780;2023-08-30T03:38:30;8.70;;;5.80;;
82783;SDS011;72520;55.762;37.780;2023-08-30T03:41:32;9.48;;;5.60;;
82783;SDS011;72520;55.762;37.780;2023-08-30T03:44:35;10.48;;;6.07;;
82783;SDS011;72520;55.762;37.780;2023-08-30T03:47:39;12.27;;;6.18;;
82783;SDS011;72520;55.762;37.780;2023-08-30T03:50:41;6.70;;;4.63;;
82783;SDS011;72520;55.762;37.780;2023-08-30T03:53:43;7.47;;;4.30;;
82783;SDS011;72520;55.762;37.780;2023-08-30T03:56:45;11.73;;;5.13;;
82783;SDS011;72520;55.762;37.780;2023-08-30T03:59:48;7.05;;;3.40;;
82783;SDS011;72520;55.762;37.780;2023-08-30T04:02:51;8.50;;;4.70;;
82783;SDS011;72520;55.762;37.780;2023-08-30T04:05:56;9.02;;;5.10;;
82783;SDS011;72520;55.762;37.780;2023-08-30T04:08:58;8.02;;;5.00;;
82783;SDS011;72520;55.762;37.780;2023-08-30T04:12:00;6.15;;;3.83;;
82783;SDS011;72520;55.762;37.780;2023-08-30T04:15:06;7.10;;;4.35;;
82783;SDS011;72520;55.762;37.780;2023-08-30T04:18:10;5.82;;;3.30;;
82783;SDS011;72520;55.762;37.780;2023-08-30T04:21:12;6.53;;;4.40;;
82783;SDS011;72520;55.762;37.780;2023-08-30T04:24:15;7.72;;;4.60;;
82783;SDS011;72520;55.762;37.780;2023-08-30T04:27:17;6.40;;;3.25;;
82783;SDS011;72520;55.762;37.780;2023-08-30T04:30:20;5.43;;;3.00;;
82783;SDS011;72520;55.762;37.780;2023-08-30T04:33:22;5.63;;;3.70;;
82783;SDS011;72520;55.762;37.780;2023-08-30T04:36:24;5.80;;;3.80;;
82783;SDS011;72520;55.762;37.780;2023-08-30T04:39:26;7.22;;;4.72;;
82783;SDS011;72520;55.762;37.780;2023-08-30T04:42:28;7.18;;;4.13;;
82783;SDS011;72520;55.762;37.780;2023-08-30T04:45:35;5.95;;;3.92;;
82783;SDS011;72520;55.762;37.780;2023-08-30T04:48:37;5.28;;;3.80;;
82783;SDS011;72520;55.762;37.780;2023-08-30T04:51:39;6.13;;;4.15;;
82783;SDS011;72520;55.762;37.780;2023-08-30T04:54:41;4.72;;;2.95;;
82783;SDS011;72520;55.762;37.780;2023-08-30T05:00:49;6.72;;;3.83;;
82783;SDS011;72520;55.762;37.780;2023-08-30T05:03:51;5.38;;;3.45;;
82783;SDS011;72520;55.762;37.780;2023-08-30T05:06:53;5.75;;;3.08;;
82783;SDS011;72520;55.762;37.780;2023-08-30T05:09:55;10.75;;;3.13;;
82783;SDS011;72520;55.762;37.780;2023-08-30T05:12:57;4.75;;;2.53;;
82783;SDS011;72520;55.762;37.780;2023-08-30T05:16:01;5.45;;;3.60;;
82783;SDS011;72520;55.762;37.780;2023-08-30T05:19:03;4.70;;;2.85;;
82783;SDS011;72520;55.762;37.780;2023-08-30T05:22:05;5.75;;;3.53;;
82783;SDS011;72520;55.762;37.780;2023-08-30T05:25:07;7.95;;;3.75;;
82783;SDS011;72520;55.762;37.780;2023-08-30T05:28:10;5.53;;;2.90;;
82783;SDS011;72520;55.762;37.780;2023-08-30T05:31:13;2.80;;;2.17;;
82783;SDS011;72520;55.762;37.780;2023-08-30T05:34:15;6.95;;;4.28;;
82783;SDS011;72520;55.762;37.780;2023-08-30T05:37:17;5.00;;;2.90;;
82783;SDS011;72520;55.762;37.780;2023-08-30T05:40:19;4.35;;;2.92;;
82783;SDS011;72520;55.762;37.780;2023-08-30T05:43:21;4.90;;;3.30;;
82783;SDS011;72520;55.762;37.780;2023-08-30T05:46:25;4.65;;;3.10;;
82783;SDS011;72520;55.762;37.780;2023-08-30T05:49:27;6.03;;;3.08;;
82783;SDS011;72520;55.762;37.780;2023-08-30T05:52:29;4.28;;;2.85;;
82783;SDS011;72520;55.762;37.780;2023-08-30T05:55:31;6.28;;;3.20;;
82783;SDS011;72520;55.762;37.780;2023-08-30T05:58:33;4.70;;;3.22;;
82783;SDS011;72520;55.762;37.780;2023-08-30T06:01:37;5.15;;;3.53;;
82783;SDS011;72520;55.762;37.780;2023-08-30T06:04:39;4.88;;;3.05;;
82783;SDS011;72520;55.762;37.780;2023-08-30T06:07:41;6.85;;;3.10;;
82783;SDS011;72520;55.762;37.780;2023-08-30T06:10:43;6.03;;;3.08;;
82783;SDS011;72520;55.762;37.780;2023-08-30T06:13:45;5.15;;;3.20;;
82783;SDS011;72520;55.762;37.780;2023-08-30T06:16:49;4.85;;;3.03;;
82783;SDS011;72520;55.762;37.780;2023-08-30T06:19:53;5.00;;;3.08;;
82783;SDS011;72520;55.762;37.780;2023-08-30T06:22:57;4.38;;;2.58;;
82783;SDS011;72520;55.762;37.780;2023-08-30T06:25:59;7.60;;;4.32;;
82783;SDS011;72520;55.762;37.780;2023-08-30T06:29:03;7.80;;;4.72;;
82783;SDS011;72520;55.762;37.780;2023-08-30T06:32:07;7.93;;;4.93;;
82783;SDS011;72520;55.762;37.780;2023-08-30T06:38:10;6.13;;;3.95;;
82783;SDS011;72520;55.762;37.780;2023-08-30T06:41:12;4.68;;;2.95;;
82783;SDS011;72520;55.762;37.780;2023-08-30T06:44:14;12.65;;;6.80;;
82783;SDS011;72520;55.762;37.780;2023-08-30T06:47:18;7.22;;;4.63;;
82783;SDS011;72520;55.762;37.780;2023-08-30T06:50:21;7.03;;;4.50;;
82783;SDS011;72520;55.762;37.780;2023-08-30T06:53:23;10.38;;;4.90;;
82783;SDS011;72520;55.762;37.780;2023-08-30T06:56:25;6.60;;;4.63;;
82783;SDS011;72520;55.762;37.780;2023-08-30T06:59:27;5.40;;;3.88;;
82783;SDS011;72520;55.762;37.780;2023-08-30T07:02:31;7.53;;;4.00;;
82783;SDS011;72520;55.762;37.780;2023-08-30T07:05:33;8.35;;;4.30;;
82783;SDS011;72520;55.762;37.780;2023-08-30T07:08:35;7.65;;;3.97;;
82783;SDS011;72520;55.762;37.780;2023-08-30T07:11:41;6.63;;;3.55;;
82783;SDS011;72520;55.762;37.780;2023-08-30T07:14:45;5.50;;;3.33;;
82783;SDS011;72520;55.762;37.780;2023-08-30T07:17:48;4.88;;;2.92;;
82783;SDS011;72520;55.762;37.780;2023-08-30T07:20:51;5.30;;;3.67;;
82783;SDS011;72520;55.762;37.780;2023-08-30T07:23:54;5.43;;;3.60;;
82783;SDS011;72520;55.762;37.780;2023-08-30T07:26:56;4.40;;;3.10;;
82783;SDS011;72520;55.762;37.780;2023-08-30T07:29:58;20.17;;;4.75;;
82783;SDS011;72520;55.762;37.780;2023-08-30T07:33:01;6.57;;;3.60;;
82783;SDS011;72520;55.762;37.780;2023-08-30T07:36:04;4.70;;;2.72;;
82783;SDS011;72520;55.762;37.780;2023-08-30T07:39:07;5.97;;;3.58;;
82783;SDS011;72520;55.762;37.780;2023-08-30T07:42:09;4.20;;;2.78;;
82783;SDS011;72520;55.762;37.780;2023-08-30T07:45:12;5.82;;;3.30;;
82783;SDS011;72520;55.762;37.780;2023-08-30T07:48:15;5.55;;;3.53;;
82783;SDS011;72520;55.762;37.780;2023-08-30T07:51:18;4.15;;;2.88;;
82783;SDS011;72520;55.762;37.780;2023-08-30T07:54:20;6.30;;;3.22;;
82783;SDS011;72520;55.762;37.780;2023-08-30T07:57:23;5.70;;;3.33;;
82783;SDS011;72520;55.762;37.780;2023-08-30T08:00:25;4.93;;;2.95;;
82783;SDS011;72520;55.762;37.780;2023-08-30T08:03:28;4.45;;;3.15;;
82783;SDS011;72520;55.762;37.780;2023-08-30T08:06:30;6.57;;;3.42;;
82783;SDS011;72520;55.762;37.780;2023-08-30T08:09:32;3.53;;;2.35;;
82783;SDS011;72520;55.762;37.780;2023-08-30T08:12:34;3.60;;;2.40;;
82783;SDS011;72520;55.762;37.780;2023-08-30T08:15:38;4.00;;;2.60;;
82783;SDS011;72520;55.762;37.780;2023-08-30T08:21:43;4.22;;;2.72;;
82783;SDS011;72520;55.762;37.780;2023-08-30T08:24:45;3.85;;;2.60;;
82783;SDS011;72520;55.762;37.780;2023-08-30T08:27:47;3.42;;;2.50;;
82783;SDS011;72520;55.762;37.780;2023-08-30T08:30:49;3.42;;;2.30;;
82783;SDS011;72520;55.762;37.780;2023-08-30T08:34:06;3.85;;;2.40;;
82783;SDS011;72520;55.762;37.780;2023-08-30T08:37:10;2.83;;;1.90;;
82783;SDS011;72520;55.762;37.780;2023-08-30T08:40:12;2.42;;;1.70;;
82783;SDS011;72520;55.762;37.780;2023-08-30T08:43:14;3.28;;;2.20;;
82783;SDS011;72520;55.762;37.780;2023-08-30T08:46:18;4.40;;;1.85;;
82783;SDS011;72520;55.762;37.780;2023-08-30T08:49:25;3.60;;;1.75;;
82783;SDS011;72520;55.762;37.780;2023-08-30T08:52:32;3.05;;;2.50;;
82783;SDS011;72520;55.762;37.780;2023-08-30T08:55:34;4.93;;;3.08;;
82783;SDS011;72520;55.762;37.780;2023-08-30T08:58:37;4.63;;;2.33;;
82783;SDS011;72520;55.762;37.780;2023-08-30T09:01:40;2.75;;;1.90;;
82783;SDS011;72520;55.762;37.780;2023-08-30T09:04:43;5.72;;;2.35;;
82783;SDS011;72520;55.762;37.780;2023-08-30T09:10:48;3.05;;;1.70;;
82783;SDS011;72520;55.762;37.780;2023-08-30T09:13:51;4.65;;;1.70;;
82783;SDS011;72520;55.762;37.780;2023-08-30T09:16:56;3.03;;;1.85;;
82783;SDS011;72520;55.762;37.780;2023-08-30T09:20:06;2.65;;;1.77;;
82783;SDS011;72520;55.762;37.780;2023-08-30T09:23:18;4.97;;;2.70;;
82783;SDS011;72520;55.762;37.780;2023-08-30T09:26:21;4.72;;;2.75;;
82783;SDS011;72520;55.762;37.780;2023-08-30T09:29:25;2.60;;;1.67;;
82783;SDS011;72520;55.762;37.780;2023-08-30T09:32:27;1.88;;;1.48;;
82783;SDS011;72520;55.762;37.780;2023-08-30T09:35:30;2.42;;;1.80;;
82783;SDS011;72520;55.762;37.780;2023-08-30T09:38:32;2.90;;;1.80;;
82783;SDS011;72520;55.762;37.780;2023-08-30T09:41:34;3.13;;;2.22;;
82783;SDS011;72520;55.762;37.780;2023-08-30T09:44:36;5.47;;;3.25;;
82783;SDS011;72520;55.762;37.780;2023-08-30T09:47:38;2.55;;;1.92;;
82783;SDS011;72520;55.762;37.780;2023-08-30T09:50:42;3.75;;;2.30;;
82783;SDS011;72520;55.762;37.780;2023-08-30T09:53:49;2.67;;;1.85;;
82783;SDS011;72520;55.762;37.780;2023-08-30T09:56:55;4.03;;;2.90;;
82783;SDS011;72520;55.762;37.780;2023-08-30T09:59:58;2.20;;;1.50;;
82783;SDS011;72520;55.762;37.780;2023-08-30T10:03:01;2.63;;;1.75;;
82783;SDS011;72520;55.762;37.780;2023-08-30T10:06:05;2.22;;;1.50;;
82783;SDS011;72520;55.762;37.780;2023-08-30T10:09:09;7.45;;;5.85;;
82783;SDS011;72520;55.762;37.780;2023-08-30T10:12:11;2.50;;;1.70;;
82783;SDS011;72520;55.762;37.780;2023-08-30T10:15:14;7.10;;;3.45;;
82783;SDS011;72520;55.762;37.780;2023-08-30T10:18:17;2.55;;;1.67;;
82783;SDS011;72520;55.762;37.780;2023-08-30T10:21:25;2.67;;;1.77;;
82783;SDS011;72520;55.762;37.780;2023-08-30T10:24:29;2.83;;;2.13;;
82783;SDS011;72520;55.762;37.780;2023-08-30T10:27:34;20.80;;;16.60;;
82783;SDS011;72520;55.762;37.780;2023-08-30T10:30:42;4.90;;;3.30;;
82783;SDS011;72520;55.762;37.780;2023-08-30T10:33:48;3.28;;;2.00;;
82783;SDS011;72520;55.762;37.780;2023-08-30T10:36:58;3.90;;;1.50;;
82783;SDS011;72520;55.762;37.780;2023-08-30T10:40:02;14.75;;;10.43;;
82783;SDS011;72520;55.762;37.780;2023-08-30T10:43:04;10.20;;;4.35;;
82783;SDS011;72520;55.762;37.780;2023-08-30T10:46:06;6.32;;;4.13;;
82783;SDS011;72520;55.762;37.780;2023-08-30T10:49:11;3.72;;;1.88;;
82783;SDS011;72520;55.762;37.780;2023-08-30T10:52:17;6.40;;;2.80;;
82783;SDS011;72520;55.762;37.780;2023-08-30T10:58:23;2.75;;;1.60;;
82783;SDS011;72520;55.762;37.780;2023-08-30T11:01:25;2.97;;;1.88;;
82783;SDS011;72520;55.762;37.780;2023-08-30T11:04:28;3.38;;;1.92;;
82783;SDS011;72520;55.762;37.780;2023-08-30T11:07:32;7.75;;;5.43;;
82783;SDS011;72520;55.762;37.780;2023-08-30T11:10:34;3.60;;;2.00;;
82783;SDS011;72520;55.762;37.780;2023-08-30T11:13:36;2.72;;;1.80;;
82783;SDS011;72520;55.762;37.780;2023-08-30T11:16:38;4.55;;;2.33;;
82783;SDS011;72520;55.762;37.780;2023-08-30T11:19:41;3.35;;;1.88;;
82783;SDS011;72520;55.762;37.780;2023-08-30T11:22:44;3.55;;;2.53;;
82783;SDS011;72520;55.762;37.780;2023-08-30T11:25:49;4.80;;;2.22;;
82783;SDS011;72520;55.762;37.780;2023-08-30T11:28:54;2.33;;;1.65;;
82783;SDS011;72520;55.762;37.780;2023-08-30T11:31:56;2.80;;;1.58;;
82783;SDS011;72520;55.762;37.780;2023-08-30T11:34:58;5.75;;;3.42;;
82783;SDS011;72520;55.762;37.780;2023-08-30T11:38:02;5.05;;;3.20;;
82783;SDS011;72520;55.762;37.780;2023-08-30T11:41:04;6.55;;;4.18;;
82783;SDS011;72520;55.762;37.780;2023-08-30T11:44:09;5.07;;;2.33;;
82783;SDS011;72520;55.762;37.780;2023-08-30T11:47:13;4.55;;;2.15;;
82783;SDS011;72520;55.762;37.780;2023-08-30T11:50:19;5.60;;;2.30;;
82783;SDS011;72520;55.762;37.780;2023-08-30T11:53:24;3.38;;;2.30;;
82783;SDS011;72520;55.762;37.780;2023-08-30T11:56:27;4.15;;;1.98;;
82783;SDS011;72520;55.762;37.780;2023-08-30T11:59:29;4.05;;;2.25;;
82783;SDS011;72520;55.762;37.780;2023-08-30T12:02:36;2.70;;;1.67;;
82783;SDS011;72520;55.762;37.780;2023-08-30T12:05:43;4.63;;;1.67;;
82783;SDS011;72520;55.762;37.780;2023-08-30T12:08:47;3.00;;;1.90;;
82783;SDS011;72520;55.762;37.780;2023-08-30T12:14:54;7.95;;;4.47;;
82783;SDS011;72520;55.762;37.780;2023-08-30T12:17:57;3.10;;;1.88;;
82783;SDS011;72520;55.762;37.780;2023-08-30T12:21:07;10.93;;;6.78;;
82783;SDS011;72520;55.762;37.780;2023-08-30T12:24:11;13.20;;;8.88;;
82783;SDS011;72520;55.762;37.780;2023-08-30T12:30:15;3.28;;;2.22;;
82783;SDS011;72520;55.762;37.780;2023-08-30T12:33:18;3.88;;;2.05;;
82783;SDS011;72520;55.762;37.780;2023-08-30T12:36:20;7.72;;;2.83;;
82783;SDS011;72520;55.762;37.780;2023-08-30T12:39:24;4.35;;;2.15;;
82783;SDS011;72520;55.762;37.780;2023-08-30T12:42:26;10.57;;;6.95;;
82783;SDS011;72520;55.762;37.780;2023-08-30T12:45:28;4.78;;;2.58;;
82783;SDS011;72520;55.762;37.780;2023-08-30T12:48:31;5.68;;;2.55;;
82783;SDS011;72520;55.762;37.780;2023-08-30T12:51:35;3.55;;;2.25;;
82783;SDS011;72520;55.762;37.780;2023-08-30T12:54:43;4.88;;;2.20;;
82783;SDS011;72520;55.762;37.780;2023-08-30T12:57:49;3.50;;;2.00;;
82783;SDS011;72520;55.762;37.780;2023-08-30T13:00:53;4.05;;;1.48;;
82783;SDS011;72520;55.762;37.780;2023-08-30T13:03:57;5.95;;;1.88;;
82783;SDS011;72520;55.762;37.780;2023-08-30T13:07:04;2.95;;;1.88;;
82783;SDS011;72520;55.762;37.780;2023-08-30T13:10:11;7.50;;;2.15;;
82783;SDS011;72520;55.762;37.780;2023-08-30T13:13:16;3.80;;;2.63;;
82783;SDS011;72520;55.762;37.780;2023-08-30T13:16:22;6.20;;;2.50;;
82783;SDS011;72520;55.762;37.780;2023-08-30T13:19:29;4.50;;;1.73;;
82783;SDS011;72520;55.762;37.780;2023-08-30T13:22:32;2.90;;;1.38;;
82783;SDS011;72520;55.762;37.780;2023-08-30T13:25:40;3.45;;;2.13;;
82783;SDS011;72520;55.762;37.780;2023-08-30T13:28:44;8.77;;;4.57;;
82783;SDS011;72520;55.762;37.780;2023-08-30T13:31:48;3.70;;;1.80;;
82783;SDS011;72520;55.762;37.780;2023-08-30T13:34:54;3.83;;;1.95;;
82783;SDS011;72520;55.762;37.780;2023-08-30T13:37:58;6.97;;;3.85;;
82783;SDS011;72520;55.762;37.780;2023-08-30T13:41:04;7.60;;;2.50;;
82783;SDS011;72520;55.762;37.780;2023-08-30T13:44:09;4.35;;;1.98;;
82783;SDS011;72520;55.762;37.780;2023-08-30T13:47:13;3.72;;;2.17;;
82783;SDS011;72520;55.762;37.780;2023-08-30T13:50:18;2.75;;;1.48;;
82783;SDS011;72520;55.762;37.780;2023-08-30T13:53:24;5.30;;;3.00;;
82783;SDS011;72520;55.762;37.780;2023-08-30T13:56:32;4.05;;;2.20;;
82783;SDS011;72520;55.762;37.780;2023-08-30T13:59:40;3.50;;;1.80;;
82783;SDS011;72520;55.762;37.780;2023-08-30T14:02:45;5.13;;;3.92;;
82783;SDS011;72520;55.762;37.780;2023-08-30T14:05:52;2.83;;;1.60;;
82783;SDS011;72520;55.762;37.780;2023-08-30T14:08:56;4.80;;;1.90;;
82783;SDS011;72520;55.762;37.780;2023-08-30T14:12:02;6.18;;;1.73;;
82783;SDS011;72520;55.762;37.780;2023-08-30T14:15:08;3.97;;;2.00;;
82783;SDS011;72520;55.762;37.780;2023-08-30T14:18:13;4.32;;;2.33;;
82783;SDS011;72520;55.762;37.780;2023-08-30T14:21:18;3.55;;;2.10;;
82783;SDS011;72520;55.762;37.780;2023-08-30T14:24:22;3.30;;;1.90;;
82783;SDS011;72520;55.762;37.780;2023-08-30T14:27:29;3.85;;;1.88;;
82783;SDS011;72520;55.762;37.780;2023-08-30T14:30:34;6.60;;;2.92;;
82783;SDS011;72520;55.762;37.780;2023-08-30T14:33:42;4.85;;;2.97;;
82783;SDS011;72520;55.762;37.780;2023-08-30T14:36:48;5.25;;;2.92;;
82783;SDS011;72520;55.762;37.780;2023-08-30T14:39:53;4.00;;;1.90;;
82783;SDS011;72520;55.762;37.780;2023-08-30T14:43:04;5.10;;;2.08;;
82783;SDS011;72520;55.762;37.780;2023-08-30T14:46:10;3.25;;;2.42;;
82783;SDS011;72520;55.762;37.780;2023-08-30T14:49:17;5.40;;;2.50;;
82783;SDS011;72520;55.762;37.780;2023-08-30T14:52:22;3.92;;;2.03;;
82783;SDS011;72520;55.762;37.780;2023-08-30T14:55:27;4.57;;;1.90;;
82783;SDS011;72520;55.762;37.780;2023-08-30T14:58:33;3.63;;;1.98;;
82783;SDS011;72520;55.762;37.780;2023-08-30T15:01:38;2.55;;;1.33;;
82783;SDS011;72520;55.762;37.780;2023-08-30T15:04:44;6.30;;;1.55;;
82783;SDS011;72520;55.762;37.780;2023-08-30T15:07:48;4.88;;;2.08;;
82783;SDS011;72520;55.762;37.780;2023-08-30T15:10:53;3.78;;;1.60;;
82783;SDS011;72520;55.762;37.780;2023-08-30T15:13:59;5.75;;;2.20;;
82783;SDS011;72520;55.762;37.780;2023-08-30T15:17:04;4.53;;;2.00;;
82783;SDS011;72520;55.762;37.780;2023-08-30T15:20:11;4.72;;;1.75;;
82783;SDS011;72520;55.762;37.780;2023-08-30T15:23:16;4.53;;;2.17;;
82783;SDS011;72520;55.762;37.780;2023-08-30T15:26:21;5.68;;;1.58;;
82783;SDS011;72520;55.762;37.780;2023-08-30T15:29:28;4.03;;;2.10;;
82783;SDS011;72520;55.762;37.780;2023-08-30T15:32:33;5.22;;;1.80;;
82783;SDS011;72520;55.762;37.780;2023-08-30T15:35:38;3.97;;;1.77;;
82783;SDS011;72520;55.762;37.780;2023-08-30T15:38:42;4.75;;;2.03;;
82783;SDS011;72520;55.762;37.780;2023-08-30T15:41:47;3.60;;;2.00;;
82783;SDS011;72520;55.762;37.780;2023-08-30T15:44:54;4.32;;;2.38;;
82783;SDS011;72520;55.762;37.780;2023-08-30T15:47:58;6.65;;;2.03;;
82783;SDS011;72520;55.762;37.780;2023-08-30T15:51:02;6.70;;;2.45;;
82783;SDS011;72520;55.762;37.780;2023-08-30T15:54:10;8.52;;;3.13;;
82783;SDS011;72520;55.762;37.780;2023-08-30T15:57:14;6.72;;;2.90;;
82783;SDS011;72520;55.762;37.780;2023-08-30T16:00:21;4.78;;;2.47;;
82783;SDS011;72520;55.762;37.780;2023-08-30T16:03:26;4.88;;;2.25;;
82783;SDS011;72520;55.762;37.780;2023-08-30T16:06:30;7.03;;;1.77;;
82783;SDS011;72520;55.762;37.780;2023-08-30T16:09:35;3.00;;;1.75;;
82783;SDS011;72520;55.762;37.780;2023-08-30T16:12:40;6.35;;;2.90;;
82783;SDS011;72520;55.762;37.780;2023-08-30T16:15:46;8.93;;;3.50;;
82783;SDS011;72520;55.762;37.780;2023-08-30T16:18:52;7.13;;;2.70;;
82783;SDS011;72520;55.762;37.780;2023-08-30T16:21:56;4.53;;;2.55;;
82783;SDS011;72520;55.762;37.780;2023-08-30T16:25:00;4.40;;;2.28;;
82783;SDS011;72520;55.762;37.780;2023-08-30T16:28:05;7.65;;;3.30;;
82783;SDS011;72520;55.762;37.780;2023-08-30T16:31:11;5.50;;;2.80;;
82783;SDS011;72520;55.762;37.780;2023-08-30T16:34:16;7.57;;;3.65;;
82783;SDS011;72520;55.762;37.780;2023-08-30T16:37:21;10.30;;;3.90;;
82783;SDS011;72520;55.762;37.780;2023-08-30T16:40:25;4.80;;;3.05;;
82783;SDS011;72520;55.762;37.780;2023-08-30T16:43:30;4.95;;;2.67;;
82783;SDS011;72520;55.762;37.780;2023-08-30T16:46:37;5.80;;;2.70;;
82783;SDS011;72520;55.762;37.780;2023-08-30T16:49:42;5.05;;;2.90;;
82783;SDS011;72520;55.762;37.780;2023-08-30T16:52:47;7.20;;;3.40;;
82783;SDS011;72520;55.762;37.780;2023-08-30T16:55:52;5.95;;;3.47;;
82783;SDS011;72520;55.762;37.780;2023-08-30T16:58:57;11.95;;;7.75;;
82783;SDS011;72520;55.762;37.780;2023-08-30T17:02:05;12.38;;;7.15;;
82783;SDS011;72520;55.762;37.780;2023-08-30T17:05:11;6.75;;;4.10;;
82783;SDS011;72520;55.762;37.780;2023-08-30T17:08:15;8.02;;;3.70;;
82783;SDS011;72520;55.762;37.780;2023-08-30T17:11:19;6.45;;;3.13;;
82783;SDS011;72520;55.762;37.780;2023-08-30T17:14:24;9.05;;;4.32;;
82783;SDS011;72520;55.762;37.780;2023-08-30T17:17:31;9.70;;;4.68;;
82783;SDS011;72520;55.762;37.780;2023-08-30T17:20:36;9.45;;;5.57;;
82783;SDS011;72520;55.762;37.780;2023-08-30T17:23:40;11.60;;;5.93;;
82783;SDS011;72520;55.762;37.780;2023-08-30T17:26:46;8.45;;;4.90;;
82783;SDS011;72520;55.762;37.780;2023-08-30T17:29:50;10.90;;;5.20;;
82783;SDS011;72520;55.762;37.780;2023-08-30T17:32:56;8.63;;;5.18;;
82783;SDS011;72520;55.762;37.780;2023-08-30T17:36:01;7.28;;;4.40;;
82783;SDS011;72520;55.762;37.780;2023-08-30T17:39:07;9.85;;;5.20;;
82783;SDS011;72520;55.762;37.780;2023-08-30T17:42:11;7.57;;;4.15;;
82783;SDS011;72520;55.762;37.780;2023-08-30T17:45:17;7.18;;;4.60;;
82783;SDS011;72520;55.762;37.780;2023-08-30T17:48:25;6.47;;;3.70;;
82783;SDS011;72520;55.762;37.780;2023-08-30T17:51:29;6.20;;;4.07;;
82783;SDS011;72520;55.762;37.780;2023-08-30T17:54:35;7.00;;;4.43;;
82783;SDS011;72520;55.762;37.780;2023-08-30T17:57:40;7.82;;;4.65;;
82783;SDS011;72520;55.762;37.780;2023-08-30T18:00:45;6.97;;;3.78;;
82783;SDS011;72520;55.762;37.780;2023-08-30T18:03:54;5.97;;;3.80;;
82783;SDS011;72520;55.762;37.780;2023-08-30T18:07:00;11.10;;;5.03;;
82783;SDS011;72520;55.762;37.780;2023-08-30T18:10:05;8.63;;;3.42;;
82783;SDS011;72520;55.762;37.780;2023-08-30T18:13:10;6.00;;;2.88;;
82783;SDS011;72520;55.762;37.780;2023-08-30T18:16:17;11.43;;;7.32;;
82783;SDS011;72520;55.762;37.780;2023-08-30T18:19:24;6.53;;;3.67;;
82783;SDS011;72520;55.762;37.780;2023-08-30T18:22:28;9.63;;;4.07;;
82783;SDS011;72520;55.762;37.780;2023-08-30T18:25:32;8.77;;;4.72;;
82783;SDS011;72520;55.762;37.780;2023-08-30T18:28:38;15.35;;;8.43;;
82783;SDS011;72520;55.762;37.780;2023-08-30T18:31:42;6.32;;;3.90;;
82783;SDS011;72520;55.762;37.780;2023-08-30T18:34:49;8.07;;;3.53;;